EGLLEPKT

Guest
Details From EGLL - London Heathrow
To EPKT - Pyrzowice
Flight Number -
Tags Generated
Created
Modified
Stats Distance 743 nm / 1,376 km
Max Altitude 0 ft / 0 m
Waypoints 5
Social Downloads 0
Likes 0
Share VATSIM

Download

Looking for another format? Having issues loading an existing format? Contact us
Advertisement - Login to hide

Notes

Generated

Route

EGLL EH552 DP464 P EPKT

ID Type Via Altitude Latitude Longitude Leg Dist Tot Dist Heading (true) Name
O EGLL APT - 0 ft / 0 m 51.46477˚ -0.48695˚ - 0 nm - -
EH552 FIX - 0 ft / 0 m 51.49472˚ 5.57444˚ 226 nm 226 nm 87° / 92° -
DP464 FIX - 0 ft / 0 m 51.20801˚ 12.13797˚ 246 nm 473 nm 91° / 97° -
P NDB - 0 ft / 0 m 50.47348˚ 19.10665˚ 267 nm 741 nm 97° / 102° -
O EPKT APT - 0 ft / 0 m 50.47431˚ 19.05464˚ 1 nm 743 nm 271° / 271° -

Altitude Profile

Advertisement - Login to hide

Weather


0- 5 10 15 20 25 30 35+ Temperature / ° C

Clouds and Precipitation
Forecast for 2017-12-12 06:00 UTC. Updated an hour ago

Ground ~20,000 ft ~40,000 ft Winds

EGLL

Details ICAO EGLL (LHR)
Name London Heathrow
Region United Kingdom
Timezone Europe/London (UTC+0.0)
Stats Elevation 83 ft / 25 m (AMSL)
Location 51.471218° -0.460978°
Runways 2
Magnetic Variation 0.561° W

METAR

EGLL 120620Z AUTO VRB03KT 8000 NCD M03/M04 Q1006 NOSIG

Decode

TAF

TAF EGLL 120458Z 1206/1312 28006KT CAVOK PROB30 TEMPO 1206/1209 6000 PROB30 1216/1222 7000 BECMG 1222/1224 20012KT TEMPO 1222/1306 7000 -RA BKN014 PROB30 TEMPO 1300/1306 20015G25KT 3000 RADZ BKN005 PROB30 TEMPO 1310/1312 7000 -SHRA BKN012

Decode

Departure Runways

ID Width Length Bearing (true) Bearing (mag) Surface Threshold Offset Overrun Length
09L 164 ft / 50 m 12,811 ft / 3,905 m 89.64° 90.20° Asphalt 1,004 ft / 306 m 0 ft / 0 m
09R 164 ft / 50 m 12,019 ft / 3,663 m 89.67° 90.23° Asphalt 1,007 ft / 307 m 0 ft / 0 m
27L 164 ft / 50 m 12,019 ft / 3,663 m 269.71° 270.27° Asphalt 0 ft / 0 m 69 ft / 21 m
27R 164 ft / 50 m 12,811 ft / 3,905 m 269.69° 270.25° Asphalt 0 ft / 0 m 69 ft / 21 m

EPKT

Details ICAO EPKT (KTW)
Name PYRZOWICE
Region Poland
Timezone Europe/Warsaw (UTC+1.0)
Stats Elevation 995 ft / 303 m (AMSL)
Location 50.474263° 19.074356°
Runways 1
Magnetic Variation 5.084° E

METAR

EPKT 120630Z 24014KT CAVOK 11/05 Q0996

Decode

TAF

TAF EPKT 120530Z 1206/1306 23015KT CAVOK BECMG 1208/1210 25005KT TEMPO 1209/1306 BKN014

Decode

Destination Runways

ID Width Length Bearing (true) Bearing (mag) Surface Threshold Offset Overrun Length
09 195 ft / 59 m 9,156 ft / 2,791 m 90.18° 85.10° Concrete 0 ft / 0 m 0 ft / 0 m
27 195 ft / 59 m 9,156 ft / 2,791 m 270.22° 265.14° Concrete 0 ft / 0 m 0 ft / 0 m

Approach Navaids

Runway Type Ident Frequency Range Bearing (true) Bearing (mag) Slope Elevation
27 Localiser KAT 109.90 MHz 18 nm / 33 km 270.18° 265.09° - 995 ft / 303 m (AMSL)
27 Glidescope KAT 109.90 MHz 10 nm / 19 km 270.20° 265.12° 3.20° 995 ft / 303 m (AMSL)

Popular Alternatives